Time;durP1;ratioP1;P1;durP2;ratioP2;P2;SDS_P1;SDS_P2;PMS_P1;PMS_P2;Temp;Humidity;BMP_temperature;BMP_pressure;BME280_temperature;BME280_humidity;BME280_pressure;Samples;Min_cycle;Max_cycle;Signal;HPM_P1;HPM_P2
2023/12/30 00:01:53;;;;;;;8.57;2.05;;;6.80;99.90;;;;;;5085390;28;20089;-76
2023/12/30 00:04:19;;;;;;;11.15;2.45;;;6.80;99.90;;;;;;5073351;28;20039;-75
2023/12/30 00:06:45;;;;;;;12.25;2.05;;;6.80;99.90;;;;;;5076032;28;20379;-75
2023/12/30 00:09:11;;;;;;;8.02;1.88;;;6.80;99.90;;;;;;5074547;28;20134;-75
2023/12/30 00:11:40;;;;;;;9.32;2.15;;;6.80;99.90;;;;;;5077166;28;20533;-75
2023/12/30 00:14:05;;;;;;;10.93;2.58;;;6.80;99.90;;;;;;5061421;28;20123;-75
2023/12/30 00:16:31;;;;;;;9.70;1.70;;;6.70;99.90;;;;;;5075834;28;20549;-76
2023/12/30 00:18:57;;;;;;;12.55;2.20;;;6.70;99.90;;;;;;5062570;28;20109;-75
2023/12/30 00:21:23;;;;;;;8.75;2.22;;;6.70;99.90;;;;;;5080522;28;20040;-75
2023/12/30 00:23:49;;;;;;;12.05;2.38;;;6.70;99.90;;;;;;5085887;28;20126;-75
2023/12/30 00:26:22;;;;;;;8.40;1.85;;;6.70;99.90;;;;;;5084062;28;20050;-76
2023/12/30 00:28:49;;;;;;;10.68;1.80;;;6.70;99.90;;;;;;5079280;28;20044;-76
2023/12/30 00:31:25;;;;;;;7.80;1.83;;;6.60;99.90;;;;;;5069687;28;20211;-76
2023/12/30 00:33:52;;;;;;;9.32;1.85;;;6.60;99.90;;;;;;5058233;28;20043;-76
2023/12/30 00:36:18;;;;;;;9.48;1.92;;;6.60;99.90;;;;;;5071425;28;20047;-75
2023/12/30 00:38:44;;;;;;;12.73;2.28;;;6.60;99.90;;;;;;5063879;28;20051;-76
2023/12/30 00:41:11;;;;;;;10.05;1.95;;;6.60;99.90;;;;;;5060073;28;20051;-76
2023/12/30 00:43:37;;;;;;;8.90;1.98;;;6.50;99.90;;;;;;5081271;28;20047;-76
2023/12/30 00:46:03;;;;;;;8.05;1.80;;;6.50;99.90;;;;;;5073098;28;20456;-76
2023/12/30 00:48:30;;;;;;;9.88;2.08;;;6.40;99.90;;;;;;5059902;28;20378;-76
2023/12/30 00:50:56;;;;;;;8.82;1.90;;;6.40;99.90;;;;;;5070491;28;20850;-76
2023/12/30 00:53:21;;;;;;;7.80;1.73;;;6.40;99.90;;;;;;5059310;28;20051;-76
2023/12/30 00:55:47;;;;;;;9.85;1.90;;;6.30;99.90;;;;;;5056436;28;20571;-76
2023/12/30 00:58:13;;;;;;;7.05;1.83;;;6.30;99.90;;;;;;5069671;28;20939;-76
2023/12/30 01:00:39;;;;;;;13.02;2.30;;;6.30;99.90;;;;;;5067090;28;20047;-76
2023/12/30 01:03:05;;;;;;;9.70;2.00;;;6.30;99.90;;;;;;5074087;28;21033;-75
2023/12/30 01:05:31;;;;;;;9.00;1.95;;;6.30;99.90;;;;;;5062150;28;20492;-75
2023/12/30 01:07:56;;;;;;;11.00;2.47;;;6.30;99.90;;;;;;5061877;28;20078;-75
2023/12/30 01:10:22;;;;;;;12.13;2.08;;;6.30;99.90;;;;;;5076311;28;20078;-75
2023/12/30 01:12:48;;;;;;;8.23;2.00;;;6.30;99.90;;;;;;5071379;28;20083;-75
2023/12/30 01:15:14;;;;;;;10.70;1.83;;;6.20;99.90;;;;;;5081483;28;20071;-75
2023/12/30 01:17:42;;;;;;;8.82;1.80;;;6.20;99.90;;;;;;5082752;28;20044;-75
2023/12/30 01:20:08;;;;;;;7.65;1.50;;;6.20;99.90;;;;;;5072494;28;20958;-75
2023/12/30 01:22:34;;;;;;;10.38;1.83;;;6.20;99.90;;;;;;5056879;28;20048;-75
2023/12/30 01:25:00;;;;;;;9.60;1.95;;;6.20;99.90;;;;;;5071251;28;20047;-75
2023/12/30 01:27:26;;;;;;;8.85;1.77;;;6.10;99.90;;;;;;5068714;28;20075;-76
2023/12/30 01:29:52;;;;;;;8.48;1.73;;;6.10;99.90;;;;;;5072138;28;20047;-74
2023/12/30 01:32:17;;;;;;;10.30;2.10;;;6.10;99.90;;;;;;5064490;28;20037;-75
2023/12/30 01:34:43;;;;;;;8.55;1.83;;;6.10;99.90;;;;;;5057272;28;20048;-76
2023/12/30 01:37:10;;;;;;;9.63;1.80;;;6.00;99.90;;;;;;5071536;28;20039;-76
2023/12/30 01:39:36;;;;;;;9.88;2.13;;;6.00;99.90;;;;;;5070391;27;20062;-76
2023/12/30 01:42:02;;;;;;;10.55;2.08;;;6.00;99.90;;;;;;5078735;28;20032;-76
2023/12/30 01:44:27;;;;;;;11.98;1.67;;;6.00;99.90;;;;;;5053171;28;20044;-77
2023/12/30 01:46:54;;;;;;;11.48;2.03;;;6.00;99.90;;;;;;5073664;28;20048;-77
2023/12/30 01:49:20;;;;;;;8.18;2.05;;;6.00;99.90;;;;;;5066504;28;20144;-77
2023/12/30 01:51:48;;;;;;;9.13;2.00;;;6.00;99.90;;;;;;5061663;28;20641;-77
2023/12/30 01:54:17;;;;;;;13.93;2.33;;;6.00;99.90;;;;;;5060451;28;20047;-77
2023/12/30 01:56:44;;;;;;;10.23;1.80;;;6.00;99.90;;;;;;5069766;28;20032;-77
2023/12/30 01:59:12;;;;;;;9.70;2.08;;;6.00;99.90;;;;;;5075395;28;20306;-75
2023/12/30 02:01:38;;;;;;;8.73;1.95;;;6.00;99.90;;;;;;5071802;28;20036;-77
2023/12/30 02:04:04;;;;;;;7.28;1.85;;;6.00;99.90;;;;;;5072694;28;20070;-77
2023/12/30 02:06:30;;;;;;;9.18;2.17;;;6.00;99.90;;;;;;5064766;28;20040;-77
2023/12/30 02:08:58;;;;;;;8.57;2.10;;;6.00;99.90;;;;;;5057535;28;20529;-76
2023/12/30 02:11:24;;;;;;;8.68;1.83;;;6.00;99.90;;;;;;5061390;28;20047;-77
2023/12/30 02:13:50;;;;;;;10.45;1.83;;;6.00;99.90;;;;;;5075333;28;20442;-77
2023/12/30 02:16:15;;;;;;;9.50;1.77;;;6.10;99.90;;;;;;5075255;28;20137;-77
2023/12/30 02:18:41;;;;;;;13.05;2.15;;;6.10;99.90;;;;;;5080138;28;20048;-77
2023/12/30 02:21:07;;;;;;;10.85;2.63;;;6.00;99.90;;;;;;5069721;28;20056;-77
2023/12/30 02:23:33;;;;;;;11.38;2.05;;;6.00;99.90;;;;;;5071285;28;20046;-76
2023/12/30 02:25:58;;;;;;;10.75;2.15;;;6.00;99.90;;;;;;5064469;28;20401;-77
2023/12/30 02:28:24;;;;;;;7.43;1.80;;;6.00;99.90;;;;;;5071027;28;20382;-77
2023/12/30 02:30:50;;;;;;;11.93;2.00;;;6.10;99.90;;;;;;5077194;28;20126;-77
2023/12/30 02:33:16;;;;;;;10.98;2.40;;;6.10;99.90;;;;;;5072681;28;20203;-77
2023/12/30 02:35:42;;;;;;;10.38;2.15;;;6.10;99.90;;;;;;5066024;28;20055;-76
2023/12/30 02:38:09;;;;;;;8.23;1.63;;;6.20;99.90;;;;;;5074009;28;20478;-77
2023/12/30 02:40:34;;;;;;;9.68;2.75;;;6.10;99.90;;;;;;5075467;28;20059;-75
2023/12/30 02:43:00;;;;;;;10.25;1.90;;;6.10;99.90;;;;;;5086420;28;20039;-75
2023/12/30 02:45:26;;;;;;;9.30;1.70;;;6.10;99.90;;;;;;5078230;28;20056;-76
2023/12/30 02:47:52;;;;;;;11.50;2.05;;;6.00;99.90;;;;;;5075837;28;20400;-76
2023/12/30 02:50:18;;;;;;;9.38;1.75;;;6.10;99.90;;;;;;5095289;27;20050;-76
2023/12/30 02:52:43;;;;;;;8.98;1.65;;;6.10;99.90;;;;;;5062151;28;20093;-75
2023/12/30 02:55:09;;;;;;;9.57;1.73;;;6.00;99.90;;;;;;5066533;28;20046;-75
2023/12/30 02:57:35;;;;;;;9.75;2.50;;;6.00;99.90;;;;;;5069410;27;20562;-75
2023/12/30 03:00:01;;;;;;;7.68;1.50;;;6.10;99.90;;;;;;5059020;28;20465;-75
2023/12/30 03:02:26;;;;;;;10.10;2.10;;;6.10;99.90;;;;;;5060322;28;20047;-76
2023/12/30 03:04:52;;;;;;;8.98;2.17;;;6.00;99.90;;;;;;5075473;28;20512;-75
2023/12/30 03:07:18;;;;;;;11.55;1.98;;;6.10;99.90;;;;;;5073757;28;20078;-75
2023/12/30 03:09:44;;;;;;;11.07;2.47;;;6.10;99.90;;;;;;5070952;28;20047;-76
2023/12/30 03:12:10;;;;;;;17.38;2.83;;;6.10;99.90;;;;;;5066415;28;20050;-76
2023/12/30 03:14:35;;;;;;;9.13;1.75;;;6.10;99.90;;;;;;5054950;28;20067;-76
2023/12/30 03:17:02;;;;;;;9.90;2.05;;;6.10;99.90;;;;;;5070025;28;20036;-76
2023/12/30 03:19:27;;;;;;;10.23;2.50;;;6.10;99.90;;;;;;5070007;28;20093;-75
2023/12/30 03:21:54;;;;;;;11.13;2.33;;;6.20;99.90;;;;;;5067303;28;20036;-76
2023/12/30 03:24:20;;;;;;;9.98;2.38;;;6.20;99.90;;;;;;5075931;28;20494;-75
2023/12/30 03:26:46;;;;;;;10.40;2.20;;;6.20;99.90;;;;;;5081269;28;20048;-76
2023/12/30 03:29:11;;;;;;;9.98;2.03;;;6.20;99.90;;;;;;5066484;28;20431;-75
2023/12/30 03:31:37;;;;;;;8.65;1.83;;;6.20;99.90;;;;;;5067600;28;20052;-76
2023/12/30 03:34:03;;;;;;;9.80;2.10;;;6.20;99.90;;;;;;5075040;28;20115;-76
2023/12/30 03:36:29;;;;;;;10.98;2.05;;;6.20;99.90;;;;;;5053943;28;20085;-76
2023/12/30 03:38:54;;;;;;;12.65;2.10;;;6.20;99.90;;;;;;5073898;28;20274;-75
2023/12/30 03:41:25;;;;;;;9.77;1.88;;;6.20;99.90;;;;;;5057830;28;20517;-75
2023/12/30 03:43:51;;;;;;;;;;;6.20;99.90;;;;;;5070321;28;20169;-75
2023/12/30 03:46:17;;;;;;;7.75;2.20;;;6.20;99.90;;;;;;5078220;28;19998;-76
2023/12/30 03:48:42;;;;;;;10.98;2.10;;;6.20;99.90;;;;;;5067449;28;20044;-76
2023/12/30 03:51:09;;;;;;;12.68;1.98;;;6.20;99.90;;;;;;5059436;28;20493;-76
2023/12/30 03:53:34;;;;;;;9.60;2.20;;;6.20;99.90;;;;;;5068280;28;20079;-76
2023/12/30 03:56:00;;;;;;;11.88;2.40;;;6.20;99.90;;;;;;5075039;28;20486;-76
2023/12/30 03:58:26;;;;;;;11.88;2.17;;;6.20;99.90;;;;;;5068613;28;20050;-76
2023/12/30 04:00:52;;;;;;;11.00;2.03;;;6.20;99.90;;;;;;5064738;28;20433;-76
2023/12/30 04:03:18;;;;;;;7.95;2.30;;;6.10;99.90;;;;;;5081076;28;20054;-76
2023/12/30 04:05:44;;;;;;;10.68;2.28;;;6.10;99.90;;;;;;5082420;28;20145;-76
2023/12/30 04:08:10;;;;;;;9.15;2.40;;;6.10;99.90;;;;;;5052594;28;20044;-76
2023/12/30 04:10:35;;;;;;;10.95;2.17;;;6.10;99.90;;;;;;5068762;28;20048;-76
2023/12/30 04:13:01;;;;;;;11.48;2.40;;;6.10;99.90;;;;;;5079551;28;20124;-76
2023/12/30 04:15:28;;;;;;;12.00;2.70;;;6.00;99.90;;;;;;5066772;28;20537;-76
2023/12/30 04:17:54;;;;;;;9.07;2.33;;;6.00;99.90;;;;;;5070116;28;20040;-76
2023/12/30 04:20:20;;;;;;;11.40;2.25;;;5.90;99.90;;;;;;5070637;28;20044;-76
2023/12/30 04:22:45;;;;;;;10.85;1.92;;;5.90;99.90;;;;;;5064176;28;20051;-76
2023/12/30 04:25:11;;;;;;;15.63;2.55;;;5.90;99.90;;;;;;5071308;28;20058;-76
2023/12/30 04:27:37;;;;;;;11.52;2.38;;;5.90;99.90;;;;;;5075515;28;20055;-76
2023/12/30 04:30:03;;;;;;;12.05;2.13;;;5.80;99.90;;;;;;5080447;28;20092;-75
2023/12/30 04:32:29;;;;;;;9.93;2.88;;;5.90;99.90;;;;;;5053634;28;20036;-76
2023/12/30 04:34:55;;;;;;;14.13;2.08;;;5.80;99.90;;;;;;5059196;28;20047;-76
2023/12/30 04:37:21;;;;;;;14.48;3.65;;;5.90;99.90;;;;;;5053708;28;20079;-77
2023/12/30 04:39:46;;;;;;;16.13;2.50;;;5.80;99.90;;;;;;5062538;28;20084;-76
2023/12/30 04:42:12;;;;;;;13.70;2.47;;;5.90;99.90;;;;;;5058078;28;20469;-76
2023/12/30 04:44:38;;;;;;;11.65;2.30;;;5.80;99.90;;;;;;5053626;28;20036;-76
2023/12/30 04:47:04;;;;;;;8.85;2.03;;;5.90;99.90;;;;;;5084106;28;20036;-77
2023/12/30 04:49:30;;;;;;;11.85;2.78;;;5.90;99.90;;;;;;5066373;28;20059;-76
2023/12/30 04:51:56;;;;;;;11.18;2.42;;;5.80;99.90;;;;;;5071868;28;20035;-76
2023/12/30 04:54:21;;;;;;;11.18;2.00;;;5.80;99.90;;;;;;5071419;28;20055;-77
2023/12/30 04:56:47;;;;;;;11.88;2.40;;;5.80;99.90;;;;;;5083087;28;20448;-76
2023/12/30 04:59:13;;;;;;;12.13;2.42;;;5.80;99.90;;;;;;5073639;28;20054;-77
2023/12/30 05:01:38;;;;;;;11.05;2.08;;;5.80;99.90;;;;;;5064445;28;20036;-76
2023/12/30 05:04:04;;;;;;;11.45;2.50;;;5.80;99.90;;;;;;5063207;28;20051;-76
2023/12/30 05:06:30;;;;;;;13.10;2.88;;;5.80;99.90;;;;;;5055707;28;20043;-76
2023/12/30 05:08:58;;;;;;;14.57;2.47;;;5.80;99.90;;;;;;5075124;28;20075;-77
2023/12/30 05:11:24;;;;;;;10.38;2.20;;;5.70;99.90;;;;;;5060659;28;20040;-76
2023/12/30 05:13:50;;;;;;;12.13;2.33;;;5.70;99.90;;;;;;5075393;28;20048;-75
2023/12/30 05:16:16;;;;;;;10.40;2.00;;;5.70;99.90;;;;;;5072233;28;20448;-76
2023/12/30 05:18:42;;;;;;;12.82;2.45;;;5.70;99.90;;;;;;5080110;28;20085;-76
2023/12/30 05:21:15;;;;;;;13.63;2.70;;;5.70;99.90;;;;;;5073920;28;20082;-76
2023/12/30 05:23:41;;;;;;;11.10;2.72;;;5.70;99.90;;;;;;5085245;28;20127;-75
2023/12/30 05:26:07;;;;;;;14.75;2.60;;;5.70;99.90;;;;;;5071789;28;20491;-75
2023/12/30 05:28:33;;;;;;;13.57;2.72;;;5.70;99.90;;;;;;5079486;28;20532;-75
2023/12/30 05:30:59;;;;;;;13.52;3.00;;;5.70;99.90;;;;;;5082302;28;20044;-75
2023/12/30 05:33:28;;;;;;;18.25;3.22;;;5.60;99.90;;;;;;5055400;28;20052;-75
2023/12/30 05:35:53;;;;;;;14.02;2.33;;;5.60;99.90;;;;;;5057357;28;20302;-76
2023/12/30 05:38:20;;;;;;;15.77;2.90;;;5.60;99.90;;;;;;5076245;28;20083;-75
2023/12/30 05:40:46;;;;;;;12.88;2.35;;;5.60;99.90;;;;;;5053363;28;20109;-75
2023/12/30 05:43:11;;;;;;;13.88;2.67;;;5.60;99.90;;;;;;5053181;28;20043;-75
2023/12/30 05:45:37;;;;;;;13.00;2.58;;;5.60;99.90;;;;;;5069603;28;20071;-75
2023/12/30 05:48:03;;;;;;;13.70;2.45;;;5.60;99.90;;;;;;5068849;28;20075;-75
2023/12/30 05:50:29;;;;;;;10.32;2.20;;;5.60;99.90;;;;;;5059272;28;20063;-75
2023/12/30 05:52:55;;;;;;;13.07;2.28;;;5.60;99.90;;;;;;5057474;28;20126;-75
2023/12/30 05:55:21;;;;;;;12.23;2.88;;;5.60;99.90;;;;;;5075736;28;20048;-75
2023/12/30 05:57:47;;;;;;;12.00;2.17;;;5.60;99.90;;;;;;5069181;28;20040;-75
2023/12/30 06:00:19;;;;;;;13.13;2.47;;;5.60;99.90;;;;;;5074086;28;20118;-75
2023/12/30 06:02:45;;;;;;;12.93;2.80;;;5.60;99.90;;;;;;5080441;28;21831;-75
2023/12/30 06:05:11;;;;;;;12.02;2.80;;;5.70;99.90;;;;;;5054856;28;20067;-75
2023/12/30 06:07:40;;;;;;;16.02;2.50;;;5.80;99.90;;;;;;5077940;28;20083;-75
2023/12/30 06:10:07;;;;;;;14.48;2.72;;;5.80;99.90;;;;;;5072596;28;20276;-75
2023/12/30 06:12:33;;;;;;;9.50;2.17;;;5.80;99.90;;;;;;5072414;28;20131;-75
2023/12/30 06:14:59;;;;;;;16.67;2.72;;;5.90;99.90;;;;;;5079867;28;20047;-75
2023/12/30 06:17:25;;;;;;;14.35;3.10;;;5.90;99.90;;;;;;5062928;28;20074;-75
2023/12/30 06:19:53;;;;;;;14.75;2.70;;;5.90;99.90;;;;;;5063418;28;20052;-75
2023/12/30 06:22:19;;;;;;;16.27;2.88;;;5.90;99.90;;;;;;5079181;28;20093;-75
2023/12/30 06:24:45;;;;;;;12.35;2.70;;;5.90;99.90;;;;;;5071239;28;20293;-74
2023/12/30 06:27:11;;;;;;;14.27;2.70;;;5.80;99.90;;;;;;5067908;28;20533;-75
2023/12/30 06:29:36;;;;;;;12.25;2.33;;;5.80;99.90;;;;;;5069507;28;20056;-75
2023/12/30 06:32:03;;;;;;;9.93;2.55;;;5.80;99.90;;;;;;5064212;28;20044;-76
2023/12/30 06:34:28;;;;;;;14.70;3.15;;;5.80;99.90;;;;;;5075495;28;20409;-75
2023/12/30 06:36:54;;;;;;;14.75;2.55;;;5.80;99.90;;;;;;5058033;28;20036;-76
2023/12/30 06:39:20;;;;;;;15.38;2.83;;;5.80;99.90;;;;;;5050292;28;20066;-75
2023/12/30 06:41:46;;;;;;;16.80;3.17;;;5.70;99.90;;;;;;5068357;28;20071;-75
2023/12/30 06:44:12;;;;;;;12.85;2.80;;;5.80;99.90;;;;;;5059066;28;20098;-76
2023/12/30 06:46:37;;;;;;;14.32;2.50;;;5.80;99.90;;;;;;5069904;28;20066;-75
2023/12/30 06:49:03;;;;;;;14.57;3.33;;;5.80;99.90;;;;;;5060706;28;20047;-75
2023/12/30 06:51:29;;;;;;;17.05;3.30;;;5.80;99.90;;;;;;5072258;28;20093;-75
2023/12/30 06:53:58;;;;;;;17.83;3.28;;;5.80;99.90;;;;;;5075886;28;20048;-75
2023/12/30 06:56:24;;;;;;;15.25;2.70;;;5.80;99.90;;;;;;5063053;28;20096;-75
2023/12/30 06:58:51;;;;;;;16.58;2.90;;;5.80;99.90;;;;;;5053956;28;20156;-75
2023/12/30 07:01:20;;;;;;;13.65;2.72;;;5.80;99.90;;;;;;5071198;28;20058;-75
2023/12/30 07:03:48;;;;;;;14.43;2.85;;;5.80;99.90;;;;;;5058261;28;20494;-75
2023/12/30 07:06:14;;;;;;;14.30;2.40;;;5.80;99.90;;;;;;5059668;28;20044;-75
2023/12/30 07:08:40;;;;;;;15.45;2.53;;;5.80;99.90;;;;;;5072494;28;20113;-76
2023/12/30 07:11:06;;;;;;;14.32;2.42;;;5.80;99.90;;;;;;5065307;28;20067;-75
2023/12/30 07:13:32;;;;;;;14.60;2.83;;;5.80;99.90;;;;;;5072945;28;20040;-75
2023/12/30 07:15:58;;;;;;;14.40;2.70;;;5.80;99.90;;;;;;5053119;28;20112;-75
2023/12/30 07:18:24;;;;;;;15.90;2.92;;;5.70;99.90;;;;;;5053580;28;20134;-75
2023/12/30 07:20:50;;;;;;;12.38;2.47;;;5.70;99.90;;;;;;5054736;28;20036;-75
2023/12/30 07:23:15;;;;;;;14.10;2.92;;;5.70;99.90;;;;;;5064123;28;20040;-75
2023/12/30 07:25:41;;;;;;;14.20;2.58;;;5.70;99.90;;;;;;5078357;28;20487;-75
2023/12/30 07:28:07;;;;;;;15.13;2.70;;;5.70;99.90;;;;;;5057322;28;20040;-75
2023/12/30 07:30:33;;;;;;;15.25;2.67;;;5.70;99.90;;;;;;5054120;28;21482;-75
2023/12/30 07:32:59;;;;;;;15.90;2.92;;;5.70;99.90;;;;;;5075205;28;20085;-75
2023/12/30 07:35:28;;;;;;;14.43;2.47;;;5.70;99.90;;;;;;5066485;28;20402;-75
2023/12/30 07:37:53;;;;;;;13.45;2.70;;;5.60;99.90;;;;;;5057971;28;20042;-75
2023/12/30 07:40:19;;;;;;;13.63;2.78;;;5.70;99.90;;;;;;5071775;28;20040;-75
2023/12/30 07:42:45;;;;;;;16.17;2.85;;;5.70;99.90;;;;;;5073772;28;20220;-75
2023/12/30 07:45:11;;;;;;;15.35;3.20;;;5.60;99.90;;;;;;5070521;28;20058;-75
2023/12/30 07:47:36;;;;;;;13.70;2.40;;;5.60;99.90;;;;;;5056282;28;20079;-76
2023/12/30 07:50:03;;;;;;;12.50;2.53;;;5.60;99.90;;;;;;5055105;28;20044;-76
2023/12/30 07:52:28;;;;;;;14.75;3.83;;;5.60;99.90;;;;;;5074287;28;20058;-76
2023/12/30 07:54:54;;;;;;;12.88;2.67;;;5.50;99.90;;;;;;5054497;28;20040;-76
2023/12/30 07:57:21;;;;;;;13.90;2.40;;;5.50;99.90;;;;;;5072351;28;20044;-76
2023/12/30 07:59:46;;;;;;;14.57;2.65;;;5.50;99.90;;;;;;5072933;28;20556;-76
2023/12/30 08:02:12;;;;;;;12.80;2.58;;;5.50;99.90;;;;;;5071845;28;20051;-76
2023/12/30 08:04:43;;;;;;;13.68;2.80;;;5.40;99.90;;;;;;5066522;28;20543;-76
2023/12/30 08:07:08;;;;;;;12.77;3.10;;;5.40;99.90;;;;;;5069628;28;20052;-76
2023/12/30 08:09:36;;;;;;;12.85;2.40;;;5.30;99.90;;;;;;5076813;28;20108;-76
2023/12/30 08:12:02;;;;;;;16.58;3.55;;;5.20;99.90;;;;;;5067099;28;20075;-76
2023/12/30 08:14:28;;;;;;;11.07;2.88;;;5.20;99.90;;;;;;5074093;28;20203;-76
2023/12/30 08:16:54;;;;;;;13.27;3.30;;;5.10;99.90;;;;;;5056035;27;20044;-76
2023/12/30 08:19:20;;;;;;;10.50;2.75;;;5.10;99.90;;;;;;5081205;28;20047;-76
2023/12/30 08:21:45;;;;;;;13.70;2.67;;;5.10;99.90;;;;;;5058928;28;20044;-76
2023/12/30 08:24:14;;;;;;;14.32;3.72;;;5.10;99.90;;;;;;5082708;28;20551;-76
2023/12/30 08:26:40;;;;;;;14.80;3.83;;;5.10;99.90;;;;;;5072433;28;20048;-76
2023/12/30 08:29:08;;;;;;;14.07;3.25;;;5.10;99.90;;;;;;5075917;28;20051;-76
2023/12/30 08:31:35;;;;;;;14.45;2.78;;;5.10;99.90;;;;;;5075289;28;20508;-76
2023/12/30 08:34:01;;;;;;;14.88;2.83;;;5.00;99.90;;;;;;5056713;28;20382;-76
2023/12/30 08:36:28;;;;;;;11.60;2.83;;;5.10;99.90;;;;;;5052071;28;20044;-76
2023/12/30 08:38:57;;;;;;;18.10;3.38;;;5.10;99.90;;;;;;5070029;28;20063;-76
2023/12/30 08:41:27;;;;;;;11.95;2.30;;;5.10;99.90;;;;;;5066355;28;20059;-76
2023/12/30 08:43:53;;;;;;;;;;;5.10;99.90;;;;;;5060852;28;20044;-76
2023/12/30 08:46:19;;;;;;;12.68;2.97;;;5.20;99.90;;;;;;5080095;28;19945;-76
2023/12/30 08:48:45;;;;;;;16.30;2.53;;;5.20;99.90;;;;;;5076639;28;21226;-76
2023/12/30 08:51:17;;;;;;;14.63;2.63;;;5.20;99.90;;;;;;5076245;28;20048;-76
2023/12/30 08:53:43;;;;;;;10.48;2.67;;;5.20;99.90;;;;;;5071737;28;20505;-74
2023/12/30 08:56:08;;;;;;;13.68;2.70;;;5.30;99.90;;;;;;5074331;27;20031;-74
2023/12/30 08:58:35;;;;;;;11.77;3.38;;;5.30;99.90;;;;;;5084633;28;20055;-74
2023/12/30 09:01:00;;;;;;;14.45;2.85;;;5.40;99.90;;;;;;5083124;28;20448;-75
2023/12/30 09:03:26;;;;;;;11.38;2.80;;;5.40;99.90;;;;;;5066914;28;20048;-74
2023/12/30 09:05:52;;;;;;;12.45;2.78;;;5.40;99.90;;;;;;5083955;28;20039;-74
2023/12/30 09:08:19;;;;;;;16.20;3.30;;;5.50;99.90;;;;;;5072043;28;20470;-74
2023/12/30 09:10:45;;;;;;;13.75;2.92;;;5.50;99.90;;;;;;5065857;28;20068;-74
2023/12/30 09:13:11;;;;;;;10.57;2.85;;;5.50;99.90;;;;;;5089694;28;20096;-75
2023/12/30 09:15:37;;;;;;;13.40;3.25;;;5.60;99.90;;;;;;5089458;28;20048;-75
2023/12/30 09:18:03;;;;;;;12.15;3.10;;;5.50;99.90;;;;;;5076208;28;20032;-75
2023/12/30 09:20:29;;;;;;;10.70;3.20;;;5.50;99.90;;;;;;5060478;28;20105;-75
2023/12/30 09:22:58;;;;;;;19.08;3.72;;;5.60;99.90;;;;;;5089371;28;20075;-75
2023/12/30 09:25:24;;;;;;;12.73;3.45;;;5.50;99.90;;;;;;5065720;28;20437;-75
2023/12/30 09:27:50;;;;;;;16.17;4.40;;;5.50;99.90;;;;;;5066242;28;20485;-75
2023/12/30 09:30:17;;;;;;;13.98;3.40;;;5.60;99.90;;;;;;5077560;28;20052;-75
2023/12/30 09:32:43;;;;;;;13.65;4.03;;;5.60;99.90;;;;;;5066279;28;20051;-75
2023/12/30 09:35:09;;;;;;;17.10;3.63;;;5.60;99.90;;;;;;5068480;28;20039;-75
2023/12/30 09:37:34;;;;;;;12.23;2.80;;;5.60;99.90;;;;;;5079801;28;20043;-75
2023/12/30 09:40:00;;;;;;;11.88;3.25;;;5.60;99.90;;;;;;5082712;28;20044;-75
2023/12/30 09:42:27;;;;;;;10.75;2.72;;;5.60;99.90;;;;;;5083876;28;20783;-75
2023/12/30 09:44:54;;;;;;;11.90;3.40;;;5.60;99.90;;;;;;5083460;28;20036;-75
2023/12/30 09:47:21;;;;;;;13.07;3.13;;;5.70;99.90;;;;;;5066838;28;20046;-75
2023/12/30 09:49:47;;;;;;;13.38;3.15;;;5.70;99.90;;;;;;5065796;28;20048;-75
2023/12/30 09:52:13;;;;;;;12.27;2.42;;;5.70;99.90;;;;;;5083724;28;20401;-75
2023/12/30 09:54:39;;;;;;;9.55;2.17;;;5.70;99.90;;;;;;5068742;28;20035;-75
2023/12/30 09:57:05;;;;;;;10.40;2.90;;;5.80;99.90;;;;;;5085470;28;20063;-75
2023/12/30 09:59:35;;;;;;;12.48;2.40;;;5.80;99.90;;;;;;5066003;28;20075;-75
2023/12/30 10:02:03;;;;;;;13.30;2.53;;;5.80;99.90;;;;;;5067095;28;20079;-75
2023/12/30 10:04:29;;;;;;;12.45;2.63;;;5.80;99.90;;;;;;5080886;28;20043;-75
2023/12/30 10:06:55;;;;;;;8.77;1.95;;;5.90;99.90;;;;;;5080007;28;20048;-75
2023/12/30 10:09:22;;;;;;;12.35;2.55;;;5.90;99.90;;;;;;5080640;28;20059;-76
2023/12/30 10:11:49;;;;;;;13.10;2.60;;;6.00;99.90;;;;;;5090603;28;20039;-75
2023/12/30 10:14:15;;;;;;;11.63;2.45;;;6.00;99.90;;;;;;5079506;28;20405;-75
2023/12/30 10:16:41;;;;;;;12.27;2.80;;;6.00;99.90;;;;;;5068962;28;20046;-75
2023/12/30 10:19:11;;;;;;;11.43;2.50;;;6.10;99.90;;;;;;5060672;28;20040;-74
2023/12/30 10:21:40;;;;;;;14.07;2.60;;;6.00;99.90;;;;;;5083480;28;20052;-74
2023/12/30 10:24:06;;;;;;;11.32;2.30;;;6.10;99.90;;;;;;5073434;28;20493;-75
2023/12/30 10:26:33;;;;;;;10.45;2.17;;;6.20;99.90;;;;;;5082892;28;20396;-75
2023/12/30 10:29:00;;;;;;;13.32;2.25;;;6.20;99.90;;;;;;5067550;28;20051;-75
2023/12/30 10:31:26;;;;;;;10.90;2.17;;;6.20;99.90;;;;;;5091476;28;20050;-75
2023/12/30 10:33:53;;;;;;;10.02;2.15;;;6.30;99.90;;;;;;5081582;28;20371;-75
2023/12/30 10:36:19;;;;;;;11.85;2.78;;;6.30;99.90;;;;;;5060730;28;20139;-75
2023/12/30 10:38:45;;;;;;;13.40;2.95;;;6.40;99.90;;;;;;5068277;28;20482;-75
2023/12/30 10:41:12;;;;;;;11.35;2.63;;;6.40;99.90;;;;;;5074666;28;20537;-75
2023/12/30 10:43:38;;;;;;;13.38;3.10;;;6.40;99.90;;;;;;5081715;28;20045;-75
2023/12/30 10:46:12;;;;;;;12.77;3.00;;;6.50;99.90;;;;;;5083493;28;20047;-75
2023/12/30 10:48:48;;;;;;;11.65;2.33;;;6.50;99.90;;;;;;5088065;28;20132;-75
2023/12/30 10:51:15;;;;;;;11.55;3.10;;;6.50;99.90;;;;;;5079582;28;20036;-75
2023/12/30 10:53:46;;;;;;;10.77;2.92;;;6.60;99.90;;;;;;5076760;27;20710;-75
2023/12/30 10:56:20;;;;;;;9.38;2.70;;;6.60;99.90;;;;;;5066671;27;20040;-75
2023/12/30 10:58:50;;;;;;;13.38;3.40;;;6.70;99.90;;;;;;5079283;28;20048;-75
2023/12/30 11:01:16;;;;;;;13.00;3.15;;;6.60;99.90;;;;;;5078933;27;20350;-75
2023/12/30 11:03:42;;;;;;;13.32;3.40;;;6.70;99.90;;;;;;5061556;28;20498;-75
2023/12/30 11:06:19;;;;;;;14.52;4.93;;;6.80;99.90;;;;;;5062116;28;20040;-75
2023/12/30 11:08:45;;;;;;;13.63;4.15;;;6.80;99.90;;;;;;5079969;28;20086;-75
2023/12/30 11:11:14;;;;;;;13.48;4.47;;;6.90;99.90;;;;;;5086504;28;20126;-75
2023/12/30 11:13:44;;;;;;;16.70;4.70;;;6.90;99.90;;;;;;5063275;28;20180;-75
2023/12/30 11:16:18;;;;;;;14.23;4.15;;;6.90;99.90;;;;;;5064965;28;20036;-75
2023/12/30 11:18:53;;;;;;;12.75;4.47;;;7.00;99.90;;;;;;5073598;28;20052;-75
2023/12/30 11:21:40;;;;;;;15.00;5.13;;;7.00;99.90;;;;;;5087286;28;20055;-75
2023/12/30 11:24:08;;;;;;;15.63;4.28;;;7.10;99.90;;;;;;5077818;28;20405;-75
2023/12/30 11:26:36;;;;;;;12.68;5.50;;;7.10;99.90;;;;;;5080030;28;20082;-75
2023/12/30 11:29:03;;;;;;;14.75;5.30;;;7.10;99.90;;;;;;5067747;28;20039;-74
2023/12/30 11:31:35;;;;;;;14.30;4.75;;;7.20;99.90;;;;;;5080198;28;20052;-74
2023/12/30 11:34:01;;;;;;;13.95;4.57;;;7.20;99.90;;;;;;5081469;28;20401;-74
2023/12/30 11:36:27;;;;;;;12.48;4.65;;;7.30;99.90;;;;;;5074107;28;20397;-75
2023/12/30 11:38:58;;;;;;;16.55;4.70;;;7.40;99.90;;;;;;5087654;28;20400;-77
2023/12/30 11:41:26;;;;;;;15.40;5.13;;;7.40;99.90;;;;;;5082890;28;20079;-74
2023/12/30 11:43:53;;;;;;;14.32;5.03;;;7.50;99.90;;;;;;5086042;28;20040;-75
2023/12/30 11:46:19;;;;;;;21.02;5.30;;;7.40;99.90;;;;;;5082991;28;20039;-76
2023/12/30 11:48:45;;;;;;;11.85;4.13;;;7.50;99.90;;;;;;5095724;28;20430;-76
2023/12/30 11:51:28;;;;;;;14.65;4.57;;;7.50;99.90;;;;;;5067840;28;20089;-76
2023/12/30 11:53:54;;;;;;;11.82;4.38;;;7.60;99.90;;;;;;5070505;28;20036;-75
2023/12/30 11:56:24;;;;;;;12.45;4.18;;;7.60;99.90;;;;;;5068189;28;21383;-76
2023/12/30 11:58:50;;;;;;;12.20;4.10;;;7.70;99.90;;;;;;5088559;28;20383;-76
2023/12/30 12:01:18;;;;;;;16.50;4.78;;;7.70;99.90;;;;;;5081190;28;20105;-74
2023/12/30 12:03:44;;;;;;;13.13;5.03;;;7.70;99.90;;;;;;5085638;28;20051;-73
2023/12/30 12:06:14;;;;;;;16.35;4.45;;;7.70;99.90;;;;;;5082684;28;20089;-75
2023/12/30 12:08:39;;;;;;;12.85;3.90;;;7.80;99.90;;;;;;5064670;28;20499;-74
2023/12/30 12:11:08;;;;;;;12.00;3.65;;;7.80;99.90;;;;;;5079400;28;20078;-74
2023/12/30 12:13:34;;;;;;;11.70;3.58;;;7.90;99.90;;;;;;5091628;28;20082;-76
2023/12/30 12:16:00;;;;;;;12.48;4.15;;;7.90;99.90;;;;;;5084127;28;20043;-76
2023/12/30 12:18:26;;;;;;;13.30;3.47;;;8.00;99.90;;;;;;5088720;28;20039;-75
2023/12/30 12:20:53;;;;;;;14.20;3.25;;;8.00;99.90;;;;;;5085109;28;20122;-75
2023/12/30 12:23:23;;;;;;;11.63;2.80;;;8.10;99.90;;;;;;5067324;28;21005;-74
2023/12/30 12:25:48;;;;;;;12.73;3.50;;;8.10;99.90;;;;;;5082578;28;21678;-75
2023/12/30 12:28:23;;;;;;;15.43;3.45;;;8.10;99.90;;;;;;5084425;28;20055;-75
2023/12/30 12:30:49;;;;;;;16.23;3.88;;;8.10;99.90;;;;;;5089443;28;20054;-75
2023/12/30 12:33:17;;;;;;;14.40;3.22;;;8.20;99.90;;;;;;5088485;28;20625;-74
2023/12/30 12:35:44;;;;;;;11.05;3.33;;;8.20;99.90;;;;;;5065490;28;20040;-76
2023/12/30 12:38:10;;;;;;;15.30;3.88;;;8.20;99.90;;;;;;5095353;27;20030;-75
2023/12/30 12:40:36;;;;;;;10.73;3.15;;;8.30;99.90;;;;;;5083625;27;20405;-76
2023/12/30 12:43:02;;;;;;;15.48;3.90;;;8.30;99.90;;;;;;5074023;27;20040;-76
2023/12/30 12:45:27;;;;;;;12.98;3.10;;;8.30;99.90;;;;;;5057696;28;20043;-76
2023/12/30 12:47:53;;;;;;;14.15;3.22;;;8.30;99.90;;;;;;5079568;27;20100;-76